sensor_id;sensor_type;location;lat;lon;timestamp;temperature;humidity
31003;DHT22;23051;-6.372;106.786;2024-02-04T00:00:13;26.30;95.40
31003;DHT22;23051;-6.372;106.786;2024-02-04T00:02:17;26.30;95.40
31003;DHT22;23051;-6.372;106.786;2024-02-04T00:04:21;26.30;95.40
31003;DHT22;23051;-6.372;106.786;2024-02-04T00:06:24;26.30;95.30
31003;DHT22;23051;-6.372;106.786;2024-02-04T00:08:25;26.30;95.30
31003;DHT22;23051;-6.372;106.786;2024-02-04T00:10:26;26.30;95.30
31003;DHT22;23051;-6.372;106.786;2024-02-04T00:12:27;26.30;95.30
31003;DHT22;23051;-6.372;106.786;2024-02-04T00:14:28;26.30;95.30
31003;DHT22;23051;-6.372;106.786;2024-02-04T00:16:30;26.30;95.30
31003;DHT22;23051;-6.372;106.786;2024-02-04T00:18:31;26.30;95.30
31003;DHT22;23051;-6.372;106.786;2024-02-04T00:20:32;26.40;95.30
31003;DHT22;23051;-6.372;106.786;2024-02-04T00:22:33;26.40;95.30
31003;DHT22;23051;-6.372;106.786;2024-02-04T00:24:35;26.40;95.20
31003;DHT22;23051;-6.372;106.786;2024-02-04T00:26:36;26.40;95.20
31003;DHT22;23051;-6.372;106.786;2024-02-04T00:28:37;26.50;95.20
31003;DHT22;23051;-6.372;106.786;2024-02-04T00:30:40;26.50;95.10
31003;DHT22;23051;-6.372;106.786;2024-02-04T00:32:44;26.60;95.10
31003;DHT22;23051;-6.372;106.786;2024-02-04T00:34:45;26.60;95.00
31003;DHT22;23051;-6.372;106.786;2024-02-04T00:36:46;26.60;95.00
31003;DHT22;23051;-6.372;106.786;2024-02-04T00:38:47;26.60;95.00
31003;DHT22;23051;-6.372;106.786;2024-02-04T00:40:49;26.60;94.90
31003;DHT22;23051;-6.372;106.786;2024-02-04T00:42:50;26.60;94.90
31003;DHT22;23051;-6.372;106.786;2024-02-04T00:44:51;26.70;95.00
31003;DHT22;23051;-6.372;106.786;2024-02-04T00:46:52;26.60;94.90
31003;DHT22;23051;-6.372;106.786;2024-02-04T00:48:53;26.60;94.90
31003;DHT22;23051;-6.372;106.786;2024-02-04T00:50:55;26.60;94.90
31003;DHT22;23051;-6.372;106.786;2024-02-04T00:52:56;26.70;94.90
31003;DHT22;23051;-6.372;106.786;2024-02-04T00:54:57;26.70;94.90
31003;DHT22;23051;-6.372;106.786;2024-02-04T00:56:58;26.70;94.90
31003;DHT22;23051;-6.372;106.786;2024-02-04T00:59:01;26.70;94.90
31003;DHT22;23051;-6.372;106.786;2024-02-04T01:01:02;26.70;94.90
31003;DHT22;23051;-6.372;106.786;2024-02-04T01:03:04;26.70;94.80
31003;DHT22;23051;-6.372;106.786;2024-02-04T01:05:05;26.70;94.90
31003;DHT22;23051;-6.372;106.786;2024-02-04T01:07:06;26.70;94.90
31003;DHT22;23051;-6.372;106.786;2024-02-04T01:09:08;26.70;94.90
31003;DHT22;23051;-6.372;106.786;2024-02-04T01:11:09;26.70;94.80
31003;DHT22;23051;-6.372;106.786;2024-02-04T01:13:10;26.70;94.80
31003;DHT22;23051;-6.372;106.786;2024-02-04T01:15:11;26.80;94.80
31003;DHT22;23051;-6.372;106.786;2024-02-04T01:17:13;26.70;94.80
31003;DHT22;23051;-6.372;106.786;2024-02-04T01:19:14;26.80;94.70
31003;DHT22;23051;-6.372;106.786;2024-02-04T01:21:15;26.80;94.70
31003;DHT22;23051;-6.372;106.786;2024-02-04T01:23:16;26.90;94.60
31003;DHT22;23051;-6.372;106.786;2024-02-04T01:25:18;27.00;94.50
31003;DHT22;23051;-6.372;106.786;2024-02-04T01:27:20;27.10;94.50
31003;DHT22;23051;-6.372;106.786;2024-02-04T01:29:21;27.10;94.40
31003;DHT22;23051;-6.372;106.786;2024-02-04T01:31:22;27.10;94.30
31003;DHT22;23051;-6.372;106.786;2024-02-04T01:33:23;27.20;94.30
31003;DHT22;23051;-6.372;106.786;2024-02-04T01:35:24;27.20;94.20
31003;DHT22;23051;-6.372;106.786;2024-02-04T01:37:26;27.30;94.20
31003;DHT22;23051;-6.372;106.786;2024-02-04T01:39:27;27.30;94.10
31003;DHT22;23051;-6.372;106.786;2024-02-04T01:41:28;27.30;94.10
31003;DHT22;23051;-6.372;106.786;2024-02-04T01:43:29;27.30;94.00
31003;DHT22;23051;-6.372;106.786;2024-02-04T01:45:31;27.40;94.00
31003;DHT22;23051;-6.372;106.786;2024-02-04T01:47:33;27.40;94.00
31003;DHT22;23051;-6.372;106.786;2024-02-04T01:49:34;27.50;94.00
31003;DHT22;23051;-6.372;106.786;2024-02-04T01:51:36;27.50;93.90
31003;DHT22;23051;-6.372;106.786;2024-02-04T01:53:37;27.50;93.80
31003;DHT22;23051;-6.372;106.786;2024-02-04T01:55:39;27.60;93.80
31003;DHT22;23051;-6.372;106.786;2024-02-04T01:57:41;27.70;93.80
31003;DHT22;23051;-6.372;106.786;2024-02-04T01:59:42;27.70;93.70
31003;DHT22;23051;-6.372;106.786;2024-02-04T02:01:43;27.80;93.60
31003;DHT22;23051;-6.372;106.786;2024-02-04T02:03:45;27.80;93.80
31003;DHT22;23051;-6.372;106.786;2024-02-04T02:05:46;27.90;93.40
31003;DHT22;23051;-6.372;106.786;2024-02-04T02:07:47;28.00;93.40
31003;DHT22;23051;-6.372;106.786;2024-02-04T02:09:51;28.10;93.30
31003;DHT22;23051;-6.372;106.786;2024-02-04T02:13:57;28.20;93.20
31003;DHT22;23051;-6.372;106.786;2024-02-04T02:16:07;28.20;93.00
31003;DHT22;23051;-6.372;106.786;2024-02-04T02:20:16;28.40;93.00
31003;DHT22;23051;-6.372;106.786;2024-02-04T02:22:27;28.40;92.90
31003;DHT22;23051;-6.372;106.786;2024-02-04T02:26:33;28.50;92.80
31003;DHT22;23051;-6.372;106.786;2024-02-04T02:28:38;28.50;92.80
31003;DHT22;23051;-6.372;106.786;2024-02-04T02:30:41;28.50;92.80
31003;DHT22;23051;-6.372;106.786;2024-02-04T02:32:43;28.50;92.70
31003;DHT22;23051;-6.372;106.786;2024-02-04T02:34:45;28.50;92.70
31003;DHT22;23051;-6.372;106.786;2024-02-04T02:39:10;28.60;92.70
31003;DHT22;23051;-6.372;106.786;2024-02-04T02:41:14;28.60;92.60
31003;DHT22;23051;-6.372;106.786;2024-02-04T02:43:16;28.60;92.60
31003;DHT22;23051;-6.372;106.786;2024-02-04T02:45:21;28.70;92.60
31003;DHT22;23051;-6.372;106.786;2024-02-04T02:47:25;28.70;92.60
31003;DHT22;23051;-6.372;106.786;2024-02-04T02:49:28;28.70;92.50
31003;DHT22;23051;-6.372;106.786;2024-02-04T02:51:32;28.80;92.50
31003;DHT22;23051;-6.372;106.786;2024-02-04T02:53:34;28.80;92.40
31003;DHT22;23051;-6.372;106.786;2024-02-04T02:55:35;28.90;92.40
31003;DHT22;23051;-6.372;106.786;2024-02-04T02:57:36;28.90;92.40
31003;DHT22;23051;-6.372;106.786;2024-02-04T02:59:37;28.90;92.40
31003;DHT22;23051;-6.372;106.786;2024-02-04T03:01:39;28.90;92.40
31003;DHT22;23051;-6.372;106.786;2024-02-04T03:03:40;28.90;92.40
31003;DHT22;23051;-6.372;106.786;2024-02-04T03:05:41;28.90;92.40
31003;DHT22;23051;-6.372;106.786;2024-02-04T03:07:42;28.90;92.40
31003;DHT22;23051;-6.372;106.786;2024-02-04T03:09:44;28.80;92.40
31003;DHT22;23051;-6.372;106.786;2024-02-04T03:11:45;28.80;92.50
31003;DHT22;23051;-6.372;106.786;2024-02-04T03:13:47;28.80;92.50
31003;DHT22;23051;-6.372;106.786;2024-02-04T03:15:48;28.90;92.50
31003;DHT22;23051;-6.372;106.786;2024-02-04T03:17:49;28.80;92.50
31003;DHT22;23051;-6.372;106.786;2024-02-04T03:19:50;28.90;92.50
31003;DHT22;23051;-6.372;106.786;2024-02-04T03:21:57;28.90;92.50
31003;DHT22;23051;-6.372;106.786;2024-02-04T03:23:58;28.90;92.40
31003;DHT22;23051;-6.372;106.786;2024-02-04T03:26:00;29.00;92.40
31003;DHT22;23051;-6.372;106.786;2024-02-04T03:28:01;29.00;92.30
31003;DHT22;23051;-6.372;106.786;2024-02-04T03:30:03;29.10;92.30
31003;DHT22;23051;-6.372;106.786;2024-02-04T03:32:05;29.10;92.20
31003;DHT22;23051;-6.372;106.786;2024-02-04T03:34:06;29.20;92.20
31003;DHT22;23051;-6.372;106.786;2024-02-04T03:36:07;29.20;92.10
31003;DHT22;23051;-6.372;106.786;2024-02-04T03:38:09;29.20;92.10
31003;DHT22;23051;-6.372;106.786;2024-02-04T03:40:10;29.20;92.10
31003;DHT22;23051;-6.372;106.786;2024-02-04T03:42:11;29.30;92.10
31003;DHT22;23051;-6.372;106.786;2024-02-04T03:44:16;29.30;92.00
31003;DHT22;23051;-6.372;106.786;2024-02-04T03:46:17;29.40;92.00
31003;DHT22;23051;-6.372;106.786;2024-02-04T03:48:18;29.50;91.90
31003;DHT22;23051;-6.372;106.786;2024-02-04T03:50:19;29.50;91.80
31003;DHT22;23051;-6.372;106.786;2024-02-04T03:52:20;29.60;91.80
31003;DHT22;23051;-6.372;106.786;2024-02-04T03:54:22;29.70;91.60
31003;DHT22;23051;-6.372;106.786;2024-02-04T03:56:23;29.70;91.60
31003;DHT22;23051;-6.372;106.786;2024-02-04T03:58:24;29.70;91.60
31003;DHT22;23051;-6.372;106.786;2024-02-04T04:00:30;29.70;91.60
31003;DHT22;23051;-6.372;106.786;2024-02-04T04:02:31;29.70;91.60
31003;DHT22;23051;-6.372;106.786;2024-02-04T04:04:33;29.70;91.60
31003;DHT22;23051;-6.372;106.786;2024-02-04T04:06:42;29.80;91.60
31003;DHT22;23051;-6.372;106.786;2024-02-04T04:08:47;29.80;91.50
31003;DHT22;23051;-6.372;106.786;2024-02-04T04:10:48;29.90;91.50
31003;DHT22;23051;-6.372;106.786;2024-02-04T04:12:49;29.90;91.40
31003;DHT22;23051;-6.372;106.786;2024-02-04T04:14:50;30.00;91.40
31003;DHT22;23051;-6.372;106.786;2024-02-04T04:16:51;30.10;91.30
31003;DHT22;23051;-6.372;106.786;2024-02-04T04:18:55;30.10;91.20
31003;DHT22;23051;-6.372;106.786;2024-02-04T04:20:59;30.30;91.10
31003;DHT22;23051;-6.372;106.786;2024-02-04T04:23:00;30.40;91.00
31003;DHT22;23051;-6.372;106.786;2024-02-04T04:25:01;30.50;90.90
31003;DHT22;23051;-6.372;106.786;2024-02-04T04:27:02;30.60;90.70
31003;DHT22;23051;-6.372;106.786;2024-02-04T04:29:03;30.70;90.60
31003;DHT22;23051;-6.372;106.786;2024-02-04T04:31:05;30.80;90.50
31003;DHT22;23051;-6.372;106.786;2024-02-04T04:33:06;30.90;90.50
31003;DHT22;23051;-6.372;106.786;2024-02-04T04:35:08;30.90;90.30
31003;DHT22;23051;-6.372;106.786;2024-02-04T04:37:09;31.00;90.70
31003;DHT22;23051;-6.372;106.786;2024-02-04T04:39:11;31.00;90.30
31003;DHT22;23051;-6.372;106.786;2024-02-04T04:41:12;31.00;90.20
31003;DHT22;23051;-6.372;106.786;2024-02-04T04:43:13;31.00;90.20
31003;DHT22;23051;-6.372;106.786;2024-02-04T04:45:14;31.00;90.20
31003;DHT22;23051;-6.372;106.786;2024-02-04T04:47:16;31.00;90.30
31003;DHT22;23051;-6.372;106.786;2024-02-04T04:49:17;31.00;90.30
31003;DHT22;23051;-6.372;106.786;2024-02-04T04:51:18;30.90;90.40
31003;DHT22;23051;-6.372;106.786;2024-02-04T04:53:19;30.90;90.50
31003;DHT22;23051;-6.372;106.786;2024-02-04T04:55:20;30.90;90.50
31003;DHT22;23051;-6.372;106.786;2024-02-04T04:57:22;30.80;90.60
31003;DHT22;23051;-6.372;106.786;2024-02-04T04:59:24;30.70;90.60
31003;DHT22;23051;-6.372;106.786;2024-02-04T05:01:25;30.70;90.70
31003;DHT22;23051;-6.372;106.786;2024-02-04T05:03:26;30.80;90.70
31003;DHT22;23051;-6.372;106.786;2024-02-04T05:05:27;30.80;90.70
31003;DHT22;23051;-6.372;106.786;2024-02-04T05:07:29;30.80;90.60
31003;DHT22;23051;-6.372;106.786;2024-02-04T05:09:30;30.90;90.70
31003;DHT22;23051;-6.372;106.786;2024-02-04T05:11:31;30.80;90.60
31003;DHT22;23051;-6.372;106.786;2024-02-04T05:13:32;30.80;90.60
31003;DHT22;23051;-6.372;106.786;2024-02-04T05:15:33;30.90;90.60
31003;DHT22;23051;-6.372;106.786;2024-02-04T05:17:37;30.90;90.60
31003;DHT22;23051;-6.372;106.786;2024-02-04T05:19:40;30.90;90.60
31003;DHT22;23051;-6.372;106.786;2024-02-04T05:21:42;30.70;90.70
31003;DHT22;23051;-6.372;106.786;2024-02-04T05:23:43;30.70;90.80
31003;DHT22;23051;-6.372;106.786;2024-02-04T05:25:44;30.50;91.00
31003;DHT22;23051;-6.372;106.786;2024-02-04T05:27:46;30.30;91.20
31003;DHT22;23051;-6.372;106.786;2024-02-04T05:29:47;30.20;91.40
31003;DHT22;23051;-6.372;106.786;2024-02-04T05:31:48;30.00;91.60
31003;DHT22;23051;-6.372;106.786;2024-02-04T05:33:51;30.00;91.70
31003;DHT22;23051;-6.372;106.786;2024-02-04T05:35:52;29.90;91.70
31003;DHT22;23051;-6.372;106.786;2024-02-04T05:37:53;29.90;91.80
31003;DHT22;23051;-6.372;106.786;2024-02-04T05:39:58;29.80;91.90
31003;DHT22;23051;-6.372;106.786;2024-02-04T05:41:59;29.70;92.00
31003;DHT22;23051;-6.372;106.786;2024-02-04T05:44:00;29.60;92.00
31003;DHT22;23051;-6.372;106.786;2024-02-04T05:46:02;29.50;92.20
31003;DHT22;23051;-6.372;106.786;2024-02-04T05:48:03;29.50;92.30
31003;DHT22;23051;-6.372;106.786;2024-02-04T05:50:04;29.50;92.30
31003;DHT22;23051;-6.372;106.786;2024-02-04T05:52:06;29.40;92.30
31003;DHT22;23051;-6.372;106.786;2024-02-04T05:54:07;29.40;92.30
31003;DHT22;23051;-6.372;106.786;2024-02-04T05:56:08;29.40;92.40
31003;DHT22;23051;-6.372;106.786;2024-02-04T05:58:10;29.30;92.40
31003;DHT22;23051;-6.372;106.786;2024-02-04T06:00:11;29.30;92.50
31003;DHT22;23051;-6.372;106.786;2024-02-04T06:02:13;29.20;92.60
31003;DHT22;23051;-6.372;106.786;2024-02-04T06:04:15;29.10;92.70
31003;DHT22;23051;-6.372;106.786;2024-02-04T06:06:17;29.10;93.10
31003;DHT22;23051;-6.372;106.786;2024-02-04T06:08:20;29.10;92.80
31003;DHT22;23051;-6.372;106.786;2024-02-04T06:10:21;29.00;92.80
31003;DHT22;23051;-6.372;106.786;2024-02-04T06:12:22;29.00;92.80
31003;DHT22;23051;-6.372;106.786;2024-02-04T06:14:23;29.00;92.90
31003;DHT22;23051;-6.372;106.786;2024-02-04T06:16:24;28.90;92.90
31003;DHT22;23051;-6.372;106.786;2024-02-04T06:18:26;28.90;92.90
31003;DHT22;23051;-6.372;106.786;2024-02-04T06:20:28;28.90;92.90
31003;DHT22;23051;-6.372;106.786;2024-02-04T06:22:29;28.90;92.90
31003;DHT22;23051;-6.372;106.786;2024-02-04T06:24:30;28.90;92.90
31003;DHT22;23051;-6.372;106.786;2024-02-04T06:26:31;28.80;93.00
31003;DHT22;23051;-6.372;106.786;2024-02-04T06:28:33;28.70;93.10
31003;DHT22;23051;-6.372;106.786;2024-02-04T06:30:34;28.70;93.10
31003;DHT22;23051;-6.372;106.786;2024-02-04T06:32:35;28.70;93.10
31003;DHT22;23051;-6.372;106.786;2024-02-04T06:34:36;28.70;93.10
31003;DHT22;23051;-6.372;106.786;2024-02-04T06:36:38;28.70;93.10
31003;DHT22;23051;-6.372;106.786;2024-02-04T06:38:42;28.60;93.10
31003;DHT22;23051;-6.372;106.786;2024-02-04T06:40:43;28.70;93.10
31003;DHT22;23051;-6.372;106.786;2024-02-04T06:42:44;28.80;93.10
31003;DHT22;23051;-6.372;106.786;2024-02-04T06:44:45;28.80;93.00
31003;DHT22;23051;-6.372;106.786;2024-02-04T06:46:47;28.90;92.90
31003;DHT22;23051;-6.372;106.786;2024-02-04T06:48:51;28.90;92.80
31003;DHT22;23051;-6.372;106.786;2024-02-04T06:50:52;29.00;92.80
31003;DHT22;23051;-6.372;106.786;2024-02-04T06:52:54;29.00;92.70
31003;DHT22;23051;-6.372;106.786;2024-02-04T06:54:55;29.10;92.60
31003;DHT22;23051;-6.372;106.786;2024-02-04T06:56:56;29.20;92.50
31003;DHT22;23051;-6.372;106.786;2024-02-04T06:58:57;29.20;92.40
31003;DHT22;23051;-6.372;106.786;2024-02-04T07:00:58;29.30;92.40
31003;DHT22;23051;-6.372;106.786;2024-02-04T07:03:02;29.30;92.30
31003;DHT22;23051;-6.372;106.786;2024-02-04T07:05:04;29.40;92.20
31003;DHT22;23051;-6.372;106.786;2024-02-04T07:07:05;29.50;92.10
31003;DHT22;23051;-6.372;106.786;2024-02-04T07:09:07;29.60;92.00
31003;DHT22;23051;-6.372;106.786;2024-02-04T07:11:08;29.70;91.90
31003;DHT22;23051;-6.372;106.786;2024-02-04T07:13:09;29.70;91.80
31003;DHT22;23051;-6.372;106.786;2024-02-04T07:15:12;29.70;91.80
31003;DHT22;23051;-6.372;106.786;2024-02-04T07:17:13;29.70;91.80
31003;DHT22;23051;-6.372;106.786;2024-02-04T07:19:14;29.80;91.70
31003;DHT22;23051;-6.372;106.786;2024-02-04T07:21:15;29.80;91.70
31003;DHT22;23051;-6.372;106.786;2024-02-04T07:23:19;29.80;91.60
31003;DHT22;23051;-6.372;106.786;2024-02-04T07:25:20;29.90;91.60
31003;DHT22;23051;-6.372;106.786;2024-02-04T07:27:22;30.00;91.60
31003;DHT22;23051;-6.372;106.786;2024-02-04T07:29:24;30.10;91.40
31003;DHT22;23051;-6.372;106.786;2024-02-04T07:31:25;30.20;91.30
31003;DHT22;23051;-6.372;106.786;2024-02-04T07:33:26;30.20;91.20
31003;DHT22;23051;-6.372;106.786;2024-02-04T07:35:27;30.20;91.20
31003;DHT22;23051;-6.372;106.786;2024-02-04T07:37:28;30.30;91.10
31003;DHT22;23051;-6.372;106.786;2024-02-04T07:39:29;30.30;91.00
31003;DHT22;23051;-6.372;106.786;2024-02-04T07:41:32;30.40;91.00
31003;DHT22;23051;-6.372;106.786;2024-02-04T07:43:33;30.30;91.00
31003;DHT22;23051;-6.372;106.786;2024-02-04T07:45:34;30.40;91.00
31003;DHT22;23051;-6.372;106.786;2024-02-04T07:47:36;30.40;91.00
31003;DHT22;23051;-6.372;106.786;2024-02-04T07:49:40;30.50;90.90
31003;DHT22;23051;-6.372;106.786;2024-02-04T07:51:41;30.60;90.80
31003;DHT22;23051;-6.372;106.786;2024-02-04T07:53:42;30.70;90.70
31003;DHT22;23051;-6.372;106.786;2024-02-04T07:55:44;30.90;90.60
31003;DHT22;23051;-6.372;106.786;2024-02-04T07:57:45;30.90;90.40
31003;DHT22;23051;-6.372;106.786;2024-02-04T07:59:46;31.10;90.30
31003;DHT22;23051;-6.372;106.786;2024-02-04T08:01:47;31.20;90.10
31003;DHT22;23051;-6.372;106.786;2024-02-04T08:03:49;31.30;90.00
31003;DHT22;23051;-6.372;106.786;2024-02-04T08:05:52;31.50;89.80
31003;DHT22;23051;-6.372;106.786;2024-02-04T08:07:53;31.50;89.50
31003;DHT22;23051;-6.372;106.786;2024-02-04T08:09:54;31.70;89.30
31003;DHT22;23051;-6.372;106.786;2024-02-04T08:11:56;31.80;89.00
31003;DHT22;23051;-6.372;106.786;2024-02-04T08:13:57;31.80;88.80
31003;DHT22;23051;-6.372;106.786;2024-02-04T08:15:58;31.90;88.70
31003;DHT22;23051;-6.372;106.786;2024-02-04T08:18:00;32.00;88.50
31003;DHT22;23051;-6.372;106.786;2024-02-04T08:20:01;32.10;88.30
31003;DHT22;23051;-6.372;106.786;2024-02-04T08:22:04;32.20;88.00
31003;DHT22;23051;-6.372;106.786;2024-02-04T08:24:06;32.30;87.90
31003;DHT22;23051;-6.372;106.786;2024-02-04T08:26:07;32.30;87.80
31003;DHT22;23051;-6.372;106.786;2024-02-04T08:28:09;32.30;87.70
31003;DHT22;23051;-6.372;106.786;2024-02-04T08:30:10;32.40;87.70
31003;DHT22;23051;-6.372;106.786;2024-02-04T08:32:12;32.40;87.70
31003;DHT22;23051;-6.372;106.786;2024-02-04T08:34:14;32.40;87.50
31003;DHT22;23051;-6.372;106.786;2024-02-04T08:36:15;32.50;87.30
31003;DHT22;23051;-6.372;106.786;2024-02-04T08:38:16;32.60;87.00
31003;DHT22;23051;-6.372;106.786;2024-02-04T08:40:20;32.80;86.80
31003;DHT22;23051;-6.372;106.786;2024-02-04T08:42:21;32.90;86.50
31003;DHT22;23051;-6.372;106.786;2024-02-04T08:44:22;33.00;86.30
31003;DHT22;23051;-6.372;106.786;2024-02-04T08:46:24;33.10;86.20
31003;DHT22;23051;-6.372;106.786;2024-02-04T08:48:25;33.10;85.90
31003;DHT22;23051;-6.372;106.786;2024-02-04T08:50:26;33.20;85.80
31003;DHT22;23051;-6.372;106.786;2024-02-04T08:52:27;33.30;85.60
31003;DHT22;23051;-6.372;106.786;2024-02-04T08:54:29;33.40;85.40
31003;DHT22;23051;-6.372;106.786;2024-02-04T08:56:30;33.50;85.00
31003;DHT22;23051;-6.372;106.786;2024-02-04T08:58:31;33.80;84.50
31003;DHT22;23051;-6.372;106.786;2024-02-04T09:00:32;35.00;82.20
31003;DHT22;23051;-6.372;106.786;2024-02-04T09:02:36;36.80;77.30
31003;DHT22;23051;-6.372;106.786;2024-02-04T09:04:38;38.20;72.80
31003;DHT22;23051;-6.372;106.786;2024-02-04T09:06:48;39.50;68.80
31003;DHT22;23051;-6.372;106.786;2024-02-04T09:08:49;40.50;65.60
31003;DHT22;23051;-6.372;106.786;2024-02-04T09:10:53;41.10;63.30
31003;DHT22;23051;-6.372;106.786;2024-02-04T09:13:03;41.80;62.20
31003;DHT22;23051;-6.372;106.786;2024-02-04T09:15:04;41.00;62.40
31003;DHT22;23051;-6.372;106.786;2024-02-04T09:17:05;40.10;65.10
31003;DHT22;23051;-6.372;106.786;2024-02-04T09:19:07;39.60;67.10
31003;DHT22;23051;-6.372;106.786;2024-02-04T09:21:08;40.30;66.80
31003;DHT22;23051;-6.372;106.786;2024-02-04T09:23:09;40.80;65.60
31003;DHT22;23051;-6.372;106.786;2024-02-04T09:25:13;41.60;64.30
31003;DHT22;23051;-6.372;106.786;2024-02-04T09:27:14;42.70;62.10
31003;DHT22;23051;-6.372;106.786;2024-02-04T09:29:15;43.70;60.40
31003;DHT22;23051;-6.372;106.786;2024-02-04T09:31:16;44.80;58.80
31003;DHT22;23051;-6.372;106.786;2024-02-04T09:33:18;45.40;57.70
31003;DHT22;23051;-6.372;106.786;2024-02-04T09:35:19;46.00;57.10
31003;DHT22;23051;-6.372;106.786;2024-02-04T09:37:21;46.80;69.80
31003;DHT22;23051;-6.372;106.786;2024-02-04T09:39:22;47.00;56.10
31003;DHT22;23051;-6.372;106.786;2024-02-04T09:41:23;47.30;55.60
31003;DHT22;23051;-6.372;106.786;2024-02-04T09:43:25;47.60;55.40
31003;DHT22;23051;-6.372;106.786;2024-02-04T09:45:26;47.70;55.40
31003;DHT22;23051;-6.372;106.786;2024-02-04T09:47:32;47.60;55.80
31003;DHT22;23051;-6.372;106.786;2024-02-04T09:49:35;47.10;56.60
31003;DHT22;23051;-6.372;106.786;2024-02-04T09:51:37;46.70;57.50
31003;DHT22;23051;-6.372;106.786;2024-02-04T09:53:39;46.30;58.40
31003;DHT22;23051;-6.372;106.786;2024-02-04T09:55:42;46.10;59.10
31003;DHT22;23051;-6.372;106.786;2024-02-04T09:57:44;45.50;59.80
31003;DHT22;23051;-6.372;106.786;2024-02-04T09:59:45;44.70;61.50
31003;DHT22;23051;-6.372;106.786;2024-02-04T10:01:47;43.40;64.10
31003;DHT22;23051;-6.372;106.786;2024-02-04T10:03:49;41.90;67.80
31003;DHT22;23051;-6.372;106.786;2024-02-04T10:05:50;40.60;71.20
31003;DHT22;23051;-6.372;106.786;2024-02-04T10:07:51;39.40;74.30
31003;DHT22;23051;-6.372;106.786;2024-02-04T10:09:53;38.40;77.00
31003;DHT22;23051;-6.372;106.786;2024-02-04T10:11:54;37.60;79.00
31003;DHT22;23051;-6.372;106.786;2024-02-04T10:13:55;37.10;80.50
31003;DHT22;23051;-6.372;106.786;2024-02-04T10:15:56;36.50;81.60
31003;DHT22;23051;-6.372;106.786;2024-02-04T10:17:57;36.10;82.80
31003;DHT22;23051;-6.372;106.786;2024-02-04T10:20:00;35.70;83.50
31003;DHT22;23051;-6.372;106.786;2024-02-04T10:22:01;35.40;84.30
31003;DHT22;23051;-6.372;106.786;2024-02-04T10:24:03;35.10;85.00
31003;DHT22;23051;-6.372;106.786;2024-02-04T10:26:04;34.80;85.60
31003;DHT22;23051;-6.372;106.786;2024-02-04T10:28:05;34.50;86.10
31003;DHT22;23051;-6.372;106.786;2024-02-04T10:30:06;34.30;86.70
31003;DHT22;23051;-6.372;106.786;2024-02-04T10:32:08;34.20;87.10
31003;DHT22;23051;-6.372;106.786;2024-02-04T10:34:09;34.00;87.20
31003;DHT22;23051;-6.372;106.786;2024-02-04T10:36:10;33.80;87.50
31003;DHT22;23051;-6.372;106.786;2024-02-04T10:38:12;33.60;87.90
31003;DHT22;23051;-6.372;106.786;2024-02-04T10:40:13;33.50;88.30
31003;DHT22;23051;-6.372;106.786;2024-02-04T10:42:14;33.30;88.60
31003;DHT22;23051;-6.372;106.786;2024-02-04T10:44:23;33.20;88.90
31003;DHT22;23051;-6.372;106.786;2024-02-04T10:46:24;33.00;89.10
31003;DHT22;23051;-6.372;106.786;2024-02-04T10:48:26;32.90;89.40
31003;DHT22;23051;-6.372;106.786;2024-02-04T10:50:27;32.90;89.60
31003;DHT22;23051;-6.372;106.786;2024-02-04T10:52:39;32.80;89.60
31003;DHT22;23051;-6.372;106.786;2024-02-04T10:54:40;32.70;89.60
31003;DHT22;23051;-6.372;106.786;2024-02-04T10:56:43;32.60;89.80
31003;DHT22;23051;-6.372;106.786;2024-02-04T10:58:44;32.50;90.00
31003;DHT22;23051;-6.372;106.786;2024-02-04T11:00:47;32.40;90.00
31003;DHT22;23051;-6.372;106.786;2024-02-04T11:02:48;32.30;90.10
31003;DHT22;23051;-6.372;106.786;2024-02-04T11:04:50;32.20;90.20
31003;DHT22;23051;-6.372;106.786;2024-02-04T11:06:51;32.10;90.30
31003;DHT22;23051;-6.372;106.786;2024-02-04T11:08:55;32.20;90.30
31003;DHT22;23051;-6.372;106.786;2024-02-04T11:10:57;32.30;90.10
31003;DHT22;23051;-6.372;106.786;2024-02-04T11:12:58;32.50;89.90
31003;DHT22;23051;-6.372;106.786;2024-02-04T11:15:01;32.70;89.30
31003;DHT22;23051;-6.372;106.786;2024-02-04T11:25:51;33.30;87.00
31003;DHT22;23051;-6.372;106.786;2024-02-04T11:27:53;33.40;87.50
31003;DHT22;23051;-6.372;106.786;2024-02-04T11:29:58;33.50;86.50
31003;DHT22;23051;-6.372;106.786;2024-02-04T11:31:59;33.50;86.10
31003;DHT22;23051;-6.372;106.786;2024-02-04T11:34:00;33.60;86.10
31003;DHT22;23051;-6.372;106.786;2024-02-04T11:36:05;33.60;86.10
31003;DHT22;23051;-6.372;106.786;2024-02-04T11:38:07;33.50;86.00
31003;DHT22;23051;-6.372;106.786;2024-02-04T11:40:13;33.50;86.10
31003;DHT22;23051;-6.372;106.786;2024-02-04T11:42:15;33.50;86.20
31003;DHT22;23051;-6.372;106.786;2024-02-04T11:44:20;33.40;86.20
31003;DHT22;23051;-6.372;106.786;2024-02-04T11:46:21;33.40;86.30
31003;DHT22;23051;-6.372;106.786;2024-02-04T11:48:28;33.30;86.40
31003;DHT22;23051;-6.372;106.786;2024-02-04T11:50:30;33.30;86.50
31003;DHT22;23051;-6.372;106.786;2024-02-04T11:52:31;33.30;86.50
31003;DHT22;23051;-6.372;106.786;2024-02-04T11:54:32;33.30;86.50
31003;DHT22;23051;-6.372;106.786;2024-02-04T11:56:34;33.20;86.50
31003;DHT22;23051;-6.372;106.786;2024-02-04T11:58:36;33.20;86.50
31003;DHT22;23051;-6.372;106.786;2024-02-04T12:00:37;33.20;86.60
31003;DHT22;23051;-6.372;106.786;2024-02-04T12:02:38;33.20;86.60
31003;DHT22;23051;-6.372;106.786;2024-02-04T12:04:40;33.20;86.50
31003;DHT22;23051;-6.372;106.786;2024-02-04T12:06:41;33.20;86.40
31003;DHT22;23051;-6.372;106.786;2024-02-04T12:08:43;33.20;86.40
31003;DHT22;23051;-6.372;106.786;2024-02-04T12:10:44;33.10;86.40
31003;DHT22;23051;-6.372;106.786;2024-02-04T12:12:46;33.00;86.80
31003;DHT22;23051;-6.372;106.786;2024-02-04T12:14:47;32.70;87.30
31003;DHT22;23051;-6.372;106.786;2024-02-04T12:16:52;32.40;87.90
31003;DHT22;23051;-6.372;106.786;2024-02-04T12:18:54;32.20;88.50
31003;DHT22;23051;-6.372;106.786;2024-02-04T12:20:55;32.10;89.00
31003;DHT22;23051;-6.372;106.786;2024-02-04T12:22:57;32.00;89.40
31003;DHT22;23051;-6.372;106.786;2024-02-04T12:24:58;31.80;89.60
31003;DHT22;23051;-6.372;106.786;2024-02-04T12:27:00;31.70;89.90
31003;DHT22;23051;-6.372;106.786;2024-02-04T12:29:01;31.60;90.10
31003;DHT22;23051;-6.372;106.786;2024-02-04T12:31:03;31.50;90.10
31003;DHT22;23051;-6.372;106.786;2024-02-04T12:33:05;31.40;90.20
31003;DHT22;23051;-6.372;106.786;2024-02-04T12:35:07;31.30;90.30
31003;DHT22;23051;-6.372;106.786;2024-02-04T12:37:10;31.30;90.40
31003;DHT22;23051;-6.372;106.786;2024-02-04T12:39:11;31.20;90.50
31003;DHT22;23051;-6.372;106.786;2024-02-04T12:41:12;31.10;90.60
31003;DHT22;23051;-6.372;106.786;2024-02-04T12:43:14;31.10;90.60